createdAt,value
2019-03-28T00:00:56.953Z,60.82
2019-03-28T00:03:30.698Z,60.46
2019-03-28T00:06:04.783Z,60.46
2019-03-28T00:08:38.549Z,60.96
2019-03-28T00:11:12.457Z,60.96
2019-03-28T00:13:46.183Z,59.60
2019-03-28T00:16:19.981Z,59.04
2019-03-28T00:18:57.350Z,59.04
2019-03-28T00:21:29.168Z,60.94
2019-03-28T00:24:02.908Z,59.48
2019-03-28T00:26:36.650Z,59.34
2019-03-28T00:29:10.384Z,58.88
2019-03-28T00:31:47.909Z,58.32
2019-03-28T00:34:21.273Z,60.65
2019-03-28T00:36:55.161Z,60.77
2019-03-28T00:39:30.303Z,60.80
2019-03-28T00:42:04.018Z,61.74
2019-03-28T00:44:37.832Z,61.85
2019-03-28T00:47:14.318Z,61.85
2019-03-28T00:49:48.056Z,62.63
2019-03-28T00:52:21.811Z,66.53
2019-03-28T00:54:58.105Z,67.19
2019-03-28T00:57:31.860Z,66.77
2019-03-28T01:00:09.904Z,66.77
2019-03-28T01:02:43.641Z,66.64
2019-03-28T01:05:17.466Z,66.48
2019-03-28T01:07:51.226Z,64.66
2019-03-28T01:10:24.999Z,64.66
2019-03-28T01:13:01.714Z,67.32
2019-03-28T01:15:35.480Z,67.32
2019-03-28T01:18:09.213Z,64.79
2019-03-28T01:20:43.119Z,64.79
2019-03-28T01:23:16.926Z,65.85
2019-03-28T01:25:50.714Z,65.44
2019-03-28T01:28:24.529Z,67.93
2019-03-28T01:31:01.097Z,66.99
2019-03-28T01:33:34.828Z,67.59
2019-03-28T01:36:08.581Z,67.59
2019-03-28T01:38:42.315Z,64.35
2019-03-28T01:41:16.285Z,64.35
2019-03-28T01:43:50.089Z,63.24
2019-03-28T01:46:23.815Z,65.06
2019-03-28T01:48:58.348Z,64.68
2019-03-28T01:51:32.191Z,64.68
2019-03-28T01:54:05.913Z,64.62
2019-03-28T01:56:39.651Z,65.22
2019-03-28T01:59:13.427Z,66.94
2019-03-28T02:01:47.191Z,66.36
2019-03-28T02:04:20.931Z,64.08
2019-03-28T02:06:54.844Z,64.08
2019-03-28T02:09:28.615Z,62.92
2019-03-28T02:12:02.373Z,62.59
2019-03-28T02:14:36.105Z,61.47
2019-03-28T02:17:09.870Z,62.14
2019-03-28T02:19:43.625Z,62.14
2019-03-28T02:22:17.375Z,63.33
2019-03-28T02:24:51.125Z,63.33
2019-03-28T02:27:25.958Z,62.66
2019-03-28T02:29:59.828Z,62.18
2019-03-28T02:32:34.207Z,62.12
2019-03-28T02:35:08.122Z,63.95
2019-03-28T02:37:41.890Z,65.70
2019-03-28T02:40:16.766Z,65.31
2019-03-28T02:42:50.566Z,65.05
2019-03-28T02:45:24.342Z,63.66
2019-03-28T02:48:01.641Z,62.12
2019-03-28T02:50:35.878Z,65.39
2019-03-28T02:53:09.609Z,63.60
2019-03-28T02:55:43.369Z,63.06
2019-03-28T02:58:17.094Z,61.87
2019-03-28T03:00:51.071Z,61.21
2019-03-28T03:03:25.119Z,62.96
2019-03-28T03:05:58.886Z,62.96
2019-03-28T03:08:33.605Z,63.16
2019-03-28T03:11:07.533Z,64.88
2019-03-28T03:13:41.266Z,64.59
2019-03-28T03:16:14.999Z,63.30
2019-03-28T03:18:48.756Z,63.90
2019-03-28T03:21:22.464Z,64.14
2019-03-28T03:23:56.252Z,65.37
2019-03-28T03:26:29.984Z,65.37
2019-03-28T03:29:03.747Z,63.80
2019-03-28T03:31:37.476Z,64.88
2019-03-28T03:34:12.154Z,64.88
2019-03-28T03:36:45.954Z,62.86
2019-03-28T03:39:19.728Z,62.95
2019-03-28T03:41:53.815Z,64.31
2019-03-28T03:44:27.606Z,63.77
2019-03-28T03:47:01.386Z,64.84
2019-03-28T03:49:35.142Z,64.84
2019-03-28T03:52:08.871Z,64.56
2019-03-28T03:54:42.608Z,64.48
2019-03-28T03:57:16.329Z,64.48
2019-03-28T03:59:50.115Z,64.87
2019-03-28T04:02:23.881Z,64.16
2019-03-28T04:04:57.617Z,63.02
2019-03-28T04:07:31.423Z,63.02
2019-03-28T04:10:05.839Z,65.07
2019-03-28T04:12:39.627Z,65.68
2019-03-28T04:15:13.360Z,65.94
2019-03-28T04:17:47.713Z,65.94
2019-03-28T04:20:21.630Z,64.94
2019-03-28T04:22:55.370Z,64.31
2019-03-28T04:25:29.167Z,63.68
2019-03-28T04:28:02.929Z,63.70
2019-03-28T04:30:36.734Z,63.77
2019-03-28T04:33:10.463Z,63.77
2019-03-28T04:35:44.234Z,63.62
2019-03-28T04:38:17.963Z,63.62
2019-03-28T04:40:51.708Z,63.86
2019-03-28T04:43:25.632Z,63.86
2019-03-28T04:45:59.607Z,62.98
2019-03-28T04:48:33.373Z,62.76
2019-03-28T04:51:07.114Z,63.69
2019-03-28T04:53:40.862Z,63.20
2019-03-28T04:56:14.634Z,63.20
2019-03-28T04:58:49.353Z,62.67
2019-03-28T05:01:23.274Z,61.78
2019-03-28T05:03:57.144Z,61.28
2019-03-28T05:06:31.046Z,61.28
2019-03-28T05:09:05.470Z,61.09
2019-03-28T05:11:39.218Z,61.09
2019-03-28T05:14:13.008Z,61.39
2019-03-28T05:16:46.753Z,61.59
2019-03-28T05:19:20.538Z,60.86
2019-03-28T05:21:54.280Z,60.86
2019-03-28T05:24:28.042Z,62.71
2019-03-28T05:27:01.802Z,62.17
2019-03-28T05:29:35.554Z,64.78
2019-03-28T05:32:09.308Z,64.82
2019-03-28T05:34:44.688Z,63.80
2019-03-28T05:37:18.460Z,62.77
2019-03-28T05:39:52.184Z,62.74
2019-03-28T05:42:25.926Z,63.29
2019-03-28T05:44:59.662Z,62.76
2019-03-28T05:47:33.416Z,62.76
2019-03-28T05:50:07.146Z,61.54
2019-03-28T05:52:40.893Z,64.07
2019-03-28T05:55:14.992Z,64.07
2019-03-28T05:57:48.732Z,65.57
2019-03-28T06:00:22.489Z,65.57
2019-03-28T06:02:56.229Z,64.19
2019-03-28T06:05:29.963Z,66.30
2019-03-28T06:08:03.713Z,64.47
2019-03-28T06:10:37.439Z,64.57
2019-03-28T06:13:11.194Z,63.02
2019-03-28T06:15:44.992Z,62.39
2019-03-28T06:18:18.725Z,63.08
2019-03-28T06:20:52.459Z,63.49
2019-03-28T06:23:26.189Z,63.31
2019-03-28T06:25:59.936Z,63.31
2019-03-28T06:28:33.670Z,64.75
2019-03-28T06:31:07.526Z,65.08
2019-03-28T06:33:41.246Z,65.08
2019-03-28T06:36:14.982Z,65.28
2019-03-28T06:38:48.726Z,65.28
2019-03-28T06:41:23.254Z,64.62
2019-03-28T06:43:57.474Z,64.42
2019-03-28T06:46:31.340Z,64.42
2019-03-28T06:49:05.088Z,66.76
2019-03-28T06:51:38.823Z,68.09
2019-03-28T06:54:12.815Z,68.09
2019-03-28T06:56:46.632Z,69.89
2019-03-28T06:59:20.559Z,69.59
2019-03-28T07:01:54.322Z,72.18
2019-03-28T07:04:28.078Z,71.18
2019-03-28T07:07:01.814Z,70.88
2019-03-28T07:09:35.650Z,70.26
2019-03-28T07:12:09.376Z,69.14
2019-03-28T07:14:43.128Z,69.14
2019-03-28T07:17:16.872Z,68.79
2019-03-28T07:19:50.666Z,70.23
2019-03-28T07:22:24.508Z,67.70
2019-03-28T07:24:58.310Z,69.59
2019-03-28T07:27:32.068Z,68.52
2019-03-28T07:30:10.428Z,67.30
2019-03-28T07:32:44.183Z,66.25
2019-03-28T07:35:17.912Z,66.86
2019-03-28T07:37:51.680Z,65.31
2019-03-28T07:40:25.699Z,65.43
2019-03-28T07:42:59.666Z,65.76
2019-03-28T07:45:34.596Z,66.13
2019-03-28T07:48:08.509Z,67.11
2019-03-28T07:50:42.709Z,66.48
2019-03-28T07:53:19.677Z,66.59
2019-03-28T07:55:52.179Z,66.59
2019-03-28T07:58:25.936Z,67.35
2019-03-28T08:00:59.673Z,67.35
2019-03-28T08:03:33.934Z,67.06
2019-03-28T08:06:12.603Z,65.25
2019-03-28T08:08:45.336Z,69.79
2019-03-28T08:11:19.104Z,69.79
2019-03-28T08:13:52.885Z,68.00
2019-03-28T08:16:28.874Z,68.00
2019-03-28T08:19:02.106Z,66.81
2019-03-28T08:21:35.839Z,65.72
2019-03-28T08:24:09.589Z,65.72
2019-03-28T08:26:43.320Z,64.56
2019-03-28T08:29:17.186Z,63.27
2019-03-28T08:31:50.917Z,63.27
2019-03-28T08:34:24.649Z,60.33
2019-03-28T08:36:58.431Z,62.97
2019-03-28T08:39:32.166Z,62.67
2019-03-28T08:42:05.890Z,62.12
2019-03-28T08:44:39.640Z,62.12
2019-03-28T08:47:13.418Z,63.20
2019-03-28T08:49:47.185Z,63.20
2019-03-28T08:52:20.957Z,61.00
2019-03-28T08:54:54.676Z,60.54
2019-03-28T08:57:28.434Z,60.54
2019-03-28T09:00:02.742Z,60.67
2019-03-28T09:02:36.511Z,59.59
2019-03-28T09:05:10.249Z,60.28
2019-03-28T09:07:44.010Z,60.07
2019-03-28T09:10:17.753Z,59.24
2019-03-28T09:12:51.504Z,61.50
2019-03-28T09:15:25.315Z,62.95
2019-03-28T09:18:00.379Z,63.49
2019-03-28T09:20:34.255Z,62.85
2019-03-28T09:23:08.103Z,61.36
2019-03-28T09:25:41.852Z,61.36
2019-03-28T09:28:16.144Z,61.71
2019-03-28T09:30:51.442Z,59.96
2019-03-28T09:33:25.763Z,59.96
2019-03-28T09:35:59.559Z,58.72
2019-03-28T09:38:33.382Z,58.57
2019-03-28T09:41:07.279Z,59.23
2019-03-28T09:43:54.177Z,59.23
2019-03-28T09:46:16.569Z,57.92
2019-03-28T09:48:50.358Z,58.81
2019-03-28T09:51:24.137Z,59.02
2019-03-28T09:53:57.884Z,58.41
2019-03-28T09:56:31.697Z,58.41
2019-03-28T09:59:05.782Z,55.72
2019-03-28T10:01:39.505Z,55.72
2019-03-28T10:04:13.254Z,58.49
2019-03-28T10:06:47.026Z,58.13
2019-03-28T10:09:20.815Z,58.13
2019-03-28T10:11:54.625Z,57.83
2019-03-28T10:14:28.457Z,56.68
2019-03-28T10:17:02.378Z,55.60
2019-03-28T10:19:36.119Z,55.60
2019-03-28T10:22:09.865Z,56.36
2019-03-28T10:24:44.549Z,56.36
2019-03-28T10:27:19.363Z,55.17
2019-03-28T10:29:53.371Z,55.38
2019-03-28T10:32:27.136Z,55.38
2019-03-28T10:35:01.157Z,55.52
2019-03-28T10:37:34.928Z,53.20
2019-03-28T10:40:08.675Z,52.84
2019-03-28T10:42:42.452Z,53.49
2019-03-28T10:45:16.203Z,53.49
2019-03-28T10:47:49.972Z,53.91
2019-03-28T10:50:23.745Z,52.78
2019-03-28T10:52:57.484Z,52.41
2019-03-28T10:55:31.248Z,50.00
2019-03-28T10:58:17.773Z,49.55
2019-03-28T11:00:40.597Z,50.71
2019-03-28T11:03:14.439Z,50.71
2019-03-28T11:05:48.219Z,50.29
2019-03-28T11:08:22.103Z,50.67
2019-03-28T11:10:56.537Z,50.74
2019-03-28T11:13:30.353Z,50.74
2019-03-28T11:16:04.078Z,52.90
2019-03-28T11:18:37.803Z,52.24
2019-03-28T11:21:12.651Z,49.13
2019-03-28T11:23:46.397Z,50.15
2019-03-28T11:26:20.133Z,48.16
2019-03-28T11:28:53.852Z,49.35
2019-03-28T11:31:27.719Z,49.35
2019-03-28T11:34:01.506Z,47.64
2019-03-28T11:36:35.302Z,47.64
2019-03-28T11:39:09.034Z,50.56
2019-03-28T11:41:42.758Z,50.56
2019-03-28T11:44:16.510Z,48.85
2019-03-28T11:46:50.242Z,48.80
2019-03-28T11:49:23.966Z,46.75
2019-03-28T11:51:57.696Z,48.03
2019-03-28T11:54:31.405Z,49.00
2019-03-28T11:57:05.177Z,50.00
2019-03-28T11:59:39.269Z,50.00
2019-03-28T12:02:19.824Z,50.13
2019-03-28T12:04:48.783Z,48.54
2019-03-28T12:07:22.640Z,47.40
2019-03-28T12:09:56.377Z,48.42
2019-03-28T12:12:30.104Z,48.42
2019-03-28T12:15:05.379Z,48.44
2019-03-28T12:17:39.155Z,48.44
2019-03-28T12:20:12.956Z,45.38
2019-03-28T12:22:46.706Z,45.86
2019-03-28T12:25:20.447Z,46.88
2019-03-28T12:27:54.172Z,47.42
2019-03-28T12:30:27.953Z,47.91
2019-03-28T12:33:01.692Z,47.91
2019-03-28T12:35:35.452Z,45.77
2019-03-28T12:38:09.177Z,45.77
2019-03-28T12:40:42.923Z,45.40
2019-03-28T12:43:16.665Z,45.40
2019-03-28T12:45:50.395Z,47.14
2019-03-28T12:48:24.139Z,45.86
2019-03-28T12:50:59.146Z,45.02
2019-03-28T12:53:33.083Z,44.75
2019-03-28T12:56:06.825Z,44.19
2019-03-28T12:58:40.573Z,44.19
2019-03-28T13:01:14.291Z,45.85
2019-03-28T13:03:48.037Z,44.71
2019-03-28T13:06:21.780Z,44.86
2019-03-28T13:08:55.470Z,43.91
2019-03-28T13:11:29.221Z,43.91
2019-03-28T13:14:02.977Z,45.03
2019-03-28T13:16:36.722Z,45.03
2019-03-28T13:19:10.446Z,46.50
2019-03-28T13:21:44.193Z,46.86
2019-03-28T13:24:17.930Z,46.86
2019-03-28T13:26:51.640Z,45.96
2019-03-28T13:29:25.363Z,45.38
2019-03-28T13:31:59.095Z,43.39
2019-03-28T13:34:32.877Z,43.39
2019-03-28T13:37:06.619Z,42.95
2019-03-28T13:39:40.335Z,42.95
2019-03-28T13:42:14.052Z,45.21
2019-03-28T13:44:48.645Z,45.12
2019-03-28T13:47:22.428Z,44.58
2019-03-28T13:49:56.151Z,45.99
2019-03-28T13:52:29.883Z,47.02
2019-03-28T13:55:05.158Z,46.13
2019-03-28T13:57:38.932Z,46.65
2019-03-28T14:00:13.939Z,46.65
2019-03-28T14:02:56.976Z,45.99
2019-03-28T14:05:23.090Z,45.99
2019-03-28T14:07:56.829Z,46.80
2019-03-28T14:10:30.555Z,46.80
2019-03-28T14:13:04.820Z,47.88
2019-03-28T14:15:38.552Z,47.88
2019-03-28T14:18:12.289Z,46.47
2019-03-28T14:20:46.149Z,47.13
2019-03-28T14:23:19.878Z,48.28
2019-03-28T14:25:53.633Z,46.62
2019-03-28T14:28:27.362Z,46.62
2019-03-28T14:31:01.151Z,48.12
2019-03-28T14:33:35.048Z,47.50
2019-03-28T14:36:08.754Z,47.15
2019-03-28T14:38:42.456Z,47.29
2019-03-28T14:41:16.184Z,46.74
2019-03-28T14:43:49.910Z,47.54
2019-03-28T14:46:23.649Z,46.55
2019-03-28T14:48:57.370Z,46.20
2019-03-28T14:51:31.095Z,46.20
2019-03-28T14:54:04.816Z,45.08
2019-03-28T14:56:38.526Z,46.67
2019-03-28T14:59:12.416Z,46.67
2019-03-28T15:01:46.135Z,46.62
2019-03-28T15:04:19.831Z,45.78
2019-03-28T15:06:53.572Z,47.22
2019-03-28T15:09:27.270Z,47.22
2019-03-28T15:12:01.002Z,48.98
2019-03-28T15:14:34.707Z,48.98
2019-03-28T15:17:08.436Z,47.35
2019-03-28T15:19:42.145Z,47.52
2019-03-28T15:22:15.864Z,49.12
2019-03-28T15:24:49.584Z,48.42
2019-03-28T15:27:23.304Z,48.42
2019-03-28T15:29:57.027Z,47.07
2019-03-28T15:32:30.742Z,46.34
2019-03-28T15:35:05.238Z,46.34
2019-03-28T15:37:38.943Z,46.50
2019-03-28T15:40:12.699Z,46.59
2019-03-28T15:42:46.427Z,45.57
2019-03-28T15:45:20.121Z,46.71
2019-03-28T15:47:53.837Z,46.71
2019-03-28T15:50:27.540Z,44.88
2019-03-28T15:53:01.261Z,44.99
2019-03-28T15:55:34.960Z,45.33
2019-03-28T15:58:22.094Z,45.27
2019-03-28T16:00:44.090Z,45.34
2019-03-28T16:03:17.798Z,45.34
2019-03-28T16:05:57.945Z,46.85
2019-03-28T16:08:27.786Z,45.29
2019-03-28T16:11:01.848Z,45.48
2019-03-28T16:13:37.523Z,44.85
2019-03-28T16:16:11.323Z,45.45
2019-03-28T16:18:45.357Z,44.90
2019-03-28T16:21:19.598Z,47.47
2019-03-28T16:23:53.469Z,46.86
2019-03-28T16:26:27.189Z,46.86
2019-03-28T16:29:00.890Z,47.33
2019-03-28T16:31:34.623Z,46.32
2019-03-28T16:34:08.349Z,46.32
2019-03-28T16:36:42.064Z,45.81
2019-03-28T16:39:15.766Z,45.81
2019-03-28T16:41:49.810Z,44.60
2019-03-28T16:44:23.723Z,43.55
2019-03-28T16:46:57.480Z,43.28
2019-03-28T16:49:31.204Z,44.49
2019-03-28T16:52:04.896Z,44.09
2019-03-28T16:54:38.638Z,44.09
2019-03-28T16:57:12.920Z,44.37
2019-03-28T16:59:46.638Z,44.50
2019-03-28T17:02:20.348Z,44.50
2019-03-28T17:04:54.857Z,44.00
2019-03-28T17:07:28.566Z,44.00
2019-03-28T17:10:02.291Z,43.53
2019-03-28T17:12:36.013Z,45.60
2019-03-28T17:15:09.722Z,43.58
2019-03-28T17:17:43.432Z,42.81
2019-03-28T17:20:17.150Z,44.06
2019-03-28T17:22:50.838Z,44.06
2019-03-28T17:25:24.558Z,44.16
2019-03-28T17:27:58.219Z,44.16
2019-03-28T17:30:31.947Z,44.19
2019-03-28T17:33:05.943Z,44.19
2019-03-28T17:35:39.948Z,45.21
2019-03-28T17:38:13.680Z,46.27
2019-03-28T17:40:47.387Z,45.93
2019-03-28T17:43:21.087Z,47.00
2019-03-28T17:45:54.877Z,47.00
2019-03-28T17:48:28.917Z,46.17
2019-03-28T17:51:03.873Z,47.46
2019-03-28T17:53:37.577Z,46.69
2019-03-28T17:56:12.132Z,46.61
2019-03-28T17:58:45.867Z,47.14
2019-03-28T18:01:19.577Z,47.14
2019-03-28T18:03:53.288Z,48.19
2019-03-28T18:06:27.007Z,50.43
2019-03-28T18:09:00.707Z,50.43
2019-03-28T18:11:34.477Z,48.59
2019-03-28T18:14:08.249Z,47.94
2019-03-28T18:16:41.995Z,47.25
2019-03-28T18:19:15.794Z,47.82
2019-03-28T18:22:02.420Z,47.82
2019-03-28T18:24:24.965Z,48.80
2019-03-28T18:26:58.685Z,48.10
2019-03-28T18:29:32.400Z,48.15
2019-03-28T18:32:06.505Z,48.15
2019-03-28T18:34:40.267Z,48.89
2019-03-28T18:37:13.967Z,47.97
2019-03-28T18:39:47.775Z,47.97
2019-03-28T18:42:21.520Z,51.13
2019-03-28T18:44:55.244Z,51.13
2019-03-28T18:47:28.957Z,50.16
2019-03-28T18:50:04.030Z,50.16
2019-03-28T18:52:37.948Z,52.11
2019-03-28T18:55:12.336Z,52.11
2019-03-28T18:57:46.224Z,51.02
2019-03-28T19:00:20.976Z,51.02
2019-03-28T19:02:54.706Z,51.03
2019-03-28T19:05:28.436Z,51.46
2019-03-28T19:08:02.161Z,51.46
2019-03-28T19:10:35.897Z,50.67
2019-03-28T19:13:09.638Z,50.21
2019-03-28T19:15:43.334Z,49.70
2019-03-28T19:18:17.050Z,50.47
2019-03-28T19:20:50.776Z,50.47
2019-03-28T19:23:24.977Z,51.25
2019-03-28T19:25:58.902Z,50.05
2019-03-28T19:28:32.628Z,49.84
2019-03-28T19:31:06.352Z,49.67
2019-03-28T19:33:40.906Z,49.67
2019-03-28T19:36:14.714Z,51.58
2019-03-28T19:38:48.453Z,51.58
2019-03-28T19:41:22.199Z,52.52
2019-03-28T19:43:55.932Z,52.05
2019-03-28T19:46:29.662Z,51.00
2019-03-28T19:49:03.368Z,50.37
2019-03-28T19:51:37.112Z,50.70
2019-03-28T19:54:10.808Z,50.70
2019-03-28T19:56:44.576Z,51.71
2019-03-28T19:59:18.358Z,53.23
2019-03-28T20:01:52.187Z,54.67
2019-03-28T20:04:25.899Z,54.91
2019-03-28T20:06:59.637Z,54.60
2019-03-28T20:09:33.379Z,54.60
2019-03-28T20:12:07.114Z,54.07
2019-03-28T20:14:41.218Z,54.79
2019-03-28T20:17:15.613Z,54.79
2019-03-28T20:19:49.409Z,53.36
2019-03-28T20:22:23.152Z,52.50
2019-03-28T20:24:58.245Z,52.37
2019-03-28T20:27:32.195Z,52.37
2019-03-28T20:30:06.388Z,52.88
2019-03-28T20:32:40.119Z,53.39
2019-03-28T20:35:13.901Z,52.30
2019-03-28T20:37:47.619Z,52.38
2019-03-28T20:40:21.363Z,51.47
2019-03-28T20:42:55.073Z,51.33
2019-03-28T20:45:28.869Z,51.98
2019-03-28T20:48:02.602Z,53.51
2019-03-28T20:50:36.340Z,53.54
2019-03-28T20:53:10.134Z,53.54
2019-03-28T20:55:43.863Z,56.06
2019-03-28T20:58:17.693Z,56.38
2019-03-28T21:00:51.405Z,57.05
2019-03-28T21:03:25.214Z,57.05
2019-03-28T21:05:58.969Z,56.32
2019-03-28T21:08:32.745Z,56.32
2019-03-28T21:11:06.465Z,57.50
2019-03-28T21:13:40.198Z,58.09
2019-03-28T21:16:13.932Z,57.58
2019-03-28T21:18:47.835Z,57.58
2019-03-28T21:21:21.594Z,58.30
2019-03-28T21:23:55.331Z,54.77
2019-03-28T21:26:29.076Z,54.77
2019-03-28T21:29:02.844Z,55.41
2019-03-28T21:31:49.232Z,55.28
2019-03-28T21:34:12.136Z,53.86
2019-03-28T21:36:45.869Z,51.92
2019-03-28T21:39:19.582Z,51.92
2019-03-28T21:41:53.339Z,56.73
2019-03-28T21:44:27.071Z,54.27
2019-03-28T21:47:00.830Z,54.91
2019-03-28T21:49:34.981Z,57.01
2019-03-28T21:52:08.955Z,58.00
2019-03-28T21:54:42.692Z,57.47
2019-03-28T21:57:16.431Z,55.32
2019-03-28T21:59:50.152Z,56.87
2019-03-28T22:02:24.210Z,56.87
2019-03-28T22:04:58.733Z,57.67
2019-03-28T22:07:32.612Z,57.94
2019-03-28T22:10:08.788Z,57.89
2019-03-28T22:12:42.192Z,57.89
2019-03-28T22:15:15.902Z,58.13
2019-03-28T22:17:49.695Z,58.08
2019-03-28T22:20:23.411Z,58.56
2019-03-28T22:22:57.127Z,57.13
2019-03-28T22:25:30.905Z,58.08
2019-03-28T22:28:04.731Z,58.08
2019-03-28T22:30:39.004Z,57.72
2019-03-28T22:33:13.039Z,57.63
2019-03-28T22:35:46.827Z,56.41
2019-03-28T22:38:22.239Z,56.41
2019-03-28T22:40:56.945Z,56.49
2019-03-28T22:43:33.273Z,56.49
2019-03-28T22:46:07.058Z,58.23
2019-03-28T22:48:40.830Z,56.67
2019-03-28T22:51:15.696Z,56.67
2019-03-28T22:53:49.535Z,57.09
2019-03-28T22:56:23.625Z,57.84
2019-03-28T22:58:59.215Z,57.84
2019-03-28T23:01:33.044Z,58.04
2019-03-28T23:04:06.804Z,56.39
2019-03-28T23:06:40.555Z,56.39
2019-03-28T23:09:14.247Z,57.61
2019-03-28T23:11:48.011Z,56.79
2019-03-28T23:14:23.510Z,56.18
2019-03-28T23:16:57.216Z,56.16
2019-03-28T23:19:31.982Z,55.87
2019-03-28T23:22:07.942Z,55.79
2019-03-28T23:24:49.000Z,56.03
2019-03-28T23:27:17.600Z,56.03
2019-03-28T23:29:51.306Z,57.76
2019-03-28T23:32:25.025Z,57.14
2019-03-28T23:34:58.865Z,55.76
2019-03-28T23:37:36.464Z,55.76
2019-03-28T23:40:10.252Z,56.53
2019-03-28T23:42:44.178Z,56.18
2019-03-28T23:45:17.940Z,55.59
2019-03-28T23:47:54.401Z,56.58
2019-03-28T23:50:27.318Z,56.58
2019-03-28T23:53:03.784Z,56.59
2019-03-28T23:55:37.480Z,56.47
2019-03-28T23:58:11.192Z,56.47
